sensor_id;sensor_type;location;lat;lon;timestamp;noise_LAeq;noise_LA_min;noise_LA_max;noise_LA01;noise_LA95
77135;Laerm;48586;50.122;18.972;2023-04-24T00:02:02;44.79;34.10;67.56;;
77135;Laerm;48586;50.122;18.972;2023-04-24T00:04:08;35.90;33.67;41.64;;
77135;Laerm;48586;50.122;18.972;2023-04-24T00:06:15;35.54;33.84;38.86;;
77135;Laerm;48586;50.122;18.972;2023-04-24T00:08:19;35.21;33.59;41.81;;
77135;Laerm;48586;50.122;18.972;2023-04-24T00:10:25;38.62;34.04;49.25;;
77135;Laerm;48586;50.122;18.972;2023-04-24T00:12:29;35.20;33.72;41.05;;
77135;Laerm;48586;50.122;18.972;2023-04-24T00:14:34;35.92;34.08;39.63;;
77135;Laerm;48586;50.122;18.972;2023-04-24T00:16:42;35.71;33.74;41.60;;
77135;Laerm;48586;50.122;18.972;2023-04-24T00:18:46;37.10;33.64;45.55;;
77135;Laerm;48586;50.122;18.972;2023-04-24T00:20:50;36.39;34.14;42.96;;
77135;Laerm;48586;50.122;18.972;2023-04-24T00:22:55;35.73;34.28;40.57;;
77135;Laerm;48586;50.122;18.972;2023-04-24T00:24:59;37.97;34.05;44.97;;
77135;Laerm;48586;50.122;18.972;2023-04-24T00:27:04;41.38;34.21;51.23;;
77135;Laerm;48586;50.122;18.972;2023-04-24T00:29:09;35.62;34.07;47.33;;
77135;Laerm;48586;50.122;18.972;2023-04-24T00:31:13;35.49;34.01;42.17;;
77135;Laerm;48586;50.122;18.972;2023-04-24T00:33:20;35.63;33.88;39.54;;
77135;Laerm;48586;50.122;18.972;2023-04-24T00:35:25;38.53;34.18;46.34;;
77135;Laerm;48586;50.122;18.972;2023-04-24T00:37:29;36.47;34.18;41.75;;
77135;Laerm;48586;50.122;18.972;2023-04-24T00:39:34;35.63;34.03;41.29;;
77135;Laerm;48586;50.122;18.972;2023-04-24T00:41:39;36.63;34.24;45.65;;
77135;Laerm;48586;50.122;18.972;2023-04-24T00:43:43;35.64;34.01;40.31;;
77135;Laerm;48586;50.122;18.972;2023-04-24T00:45:47;35.30;33.71;40.07;;
77135;Laerm;48586;50.122;18.972;2023-04-24T00:47:53;35.75;33.90;42.55;;
77135;Laerm;48586;50.122;18.972;2023-04-24T00:50:01;35.65;33.73;42.79;;
77135;Laerm;48586;50.122;18.972;2023-04-24T00:52:06;35.97;33.92;41.55;;
77135;Laerm;48586;50.122;18.972;2023-04-24T00:54:11;35.82;34.03;40.87;;
77135;Laerm;48586;50.122;18.972;2023-04-24T00:56:15;37.35;34.18;48.50;;
77135;Laerm;48586;50.122;18.972;2023-04-24T00:58:20;35.78;34.07;43.01;;
77135;Laerm;48586;50.122;18.972;2023-04-24T01:00:25;37.56;34.14;46.19;;
77135;Laerm;48586;50.122;18.972;2023-04-24T01:02:30;39.55;34.09;51.59;;
77135;Laerm;48586;50.122;18.972;2023-04-24T01:04:35;36.29;34.44;44.93;;
77135;Laerm;48586;50.122;18.972;2023-04-24T01:06:45;35.82;33.93;47.21;;
77135;Laerm;48586;50.122;18.972;2023-04-24T01:08:49;39.74;34.21;50.59;;
77135;Laerm;48586;50.122;18.972;2023-04-24T01:10:55;36.94;34.61;47.35;;
77135;Laerm;48586;50.122;18.972;2023-04-24T01:13:01;39.51;34.18;50.60;;
77135;Laerm;48586;50.122;18.972;2023-04-24T01:15:08;39.98;34.59;50.36;;
77135;Laerm;48586;50.122;18.972;2023-04-24T01:17:12;39.94;34.65;49.93;;
77135;Laerm;48586;50.122;18.972;2023-04-24T01:19:19;38.55;34.28;50.34;;
77135;Laerm;48586;50.122;18.972;2023-04-24T01:21:27;35.70;34.09;39.41;;
77135;Laerm;48586;50.122;18.972;2023-04-24T01:23:35;36.34;34.32;41.34;;
77135;Laerm;48586;50.122;18.972;2023-04-24T01:25:40;41.80;34.77;53.05;;
77135;Laerm;48586;50.122;18.972;2023-04-24T01:27:45;40.17;34.96;52.43;;
77135;Laerm;48586;50.122;18.972;2023-04-24T01:29:49;41.03;34.83;53.86;;
77135;Laerm;48586;50.122;18.972;2023-04-24T01:31:55;39.68;34.80;50.25;;
77135;Laerm;48586;50.122;18.972;2023-04-24T01:34:00;39.03;35.61;46.60;;
77135;Laerm;48586;50.122;18.972;2023-04-24T01:36:05;37.34;34.70;42.94;;
77135;Laerm;48586;50.122;18.972;2023-04-24T01:38:10;40.68;34.84;50.22;;
77135;Laerm;48586;50.122;18.972;2023-04-24T01:40:17;43.61;34.93;58.35;;
77135;Laerm;48586;50.122;18.972;2023-04-24T01:42:22;36.93;34.45;48.18;;
77135;Laerm;48586;50.122;18.972;2023-04-24T01:44:28;39.21;34.59;47.60;;
77135;Laerm;48586;50.122;18.972;2023-04-24T01:46:33;36.71;34.77;40.01;;
77135;Laerm;48586;50.122;18.972;2023-04-24T01:48:39;43.35;35.27;55.15;;
77135;Laerm;48586;50.122;18.972;2023-04-24T01:50:44;39.41;35.16;49.97;;
77135;Laerm;48586;50.122;18.972;2023-04-24T01:52:48;37.02;34.71;43.66;;
77135;Laerm;48586;50.122;18.972;2023-04-24T01:54:52;37.30;34.46;45.59;;
77135;Laerm;48586;50.122;18.972;2023-04-24T01:57:01;37.44;34.93;44.03;;
77135;Laerm;48586;50.122;18.972;2023-04-24T01:59:09;36.79;34.43;42.20;;
77135;Laerm;48586;50.122;18.972;2023-04-24T02:01:17;36.67;34.26;41.47;;
77135;Laerm;48586;50.122;18.972;2023-04-24T02:03:23;40.32;34.90;51.34;;
77135;Laerm;48586;50.122;18.972;2023-04-24T02:05:29;41.42;34.57;54.24;;
77135;Laerm;48586;50.122;18.972;2023-04-24T02:07:33;37.34;34.84;44.67;;
77135;Laerm;48586;50.122;18.972;2023-04-24T02:09:38;36.86;34.51;44.29;;
77135;Laerm;48586;50.122;18.972;2023-04-24T02:11:42;37.28;34.72;43.22;;
77135;Laerm;48586;50.122;18.972;2023-04-24T02:13:49;44.11;36.05;59.42;;
77135;Laerm;48586;50.122;18.972;2023-04-24T02:15:55;41.29;34.94;54.41;;
77135;Laerm;48586;50.122;18.972;2023-04-24T02:17:59;37.35;34.93;42.60;;
77135;Laerm;48586;50.122;18.972;2023-04-24T02:20:08;40.97;35.05;51.21;;
77135;Laerm;48586;50.122;18.972;2023-04-24T02:22:14;39.87;35.03;48.24;;
77135;Laerm;48586;50.122;18.972;2023-04-24T02:24:18;36.76;34.69;42.01;;
77135;Laerm;48586;50.122;18.972;2023-04-24T02:26:22;37.42;34.96;51.03;;
77135;Laerm;48586;50.122;18.972;2023-04-24T02:28:27;42.95;35.30;52.92;;
77135;Laerm;48586;50.122;18.972;2023-04-24T02:30:34;39.52;35.23;50.24;;
77135;Laerm;48586;50.122;18.972;2023-04-24T02:32:38;37.47;35.11;42.76;;
77135;Laerm;48586;50.122;18.972;2023-04-24T02:34:46;37.72;35.24;47.27;;
77135;Laerm;48586;50.122;18.972;2023-04-24T02:36:50;37.42;35.24;42.54;;
77135;Laerm;48586;50.122;18.972;2023-04-24T02:38:55;41.22;35.57;50.33;;
77135;Laerm;48586;50.122;18.972;2023-04-24T02:41:00;39.05;36.08;45.48;;
77135;Laerm;48586;50.122;18.972;2023-04-24T02:43:07;42.02;37.36;50.71;;
77135;Laerm;48586;50.122;18.972;2023-04-24T02:45:12;41.19;36.89;52.30;;
77135;Laerm;48586;50.122;18.972;2023-04-24T02:47:20;42.25;35.86;52.33;;
77135;Laerm;48586;50.122;18.972;2023-04-24T02:49:24;43.32;36.32;55.87;;
77135;Laerm;48586;50.122;18.972;2023-04-24T02:51:29;41.52;36.05;51.64;;
77135;Laerm;48586;50.122;18.972;2023-04-24T02:53:34;43.79;35.63;56.69;;
77135;Laerm;48586;50.122;18.972;2023-04-24T02:55:38;47.18;37.21;66.19;;
77135;Laerm;48586;50.122;18.972;2023-04-24T02:57:42;47.94;38.62;65.91;;
77135;Laerm;48586;50.122;18.972;2023-04-24T02:59:47;40.68;37.47;46.21;;
77135;Laerm;48586;50.122;18.972;2023-04-24T03:01:51;45.73;37.29;56.95;;
77135;Laerm;48586;50.122;18.972;2023-04-24T03:03:58;43.58;37.08;53.32;;
77135;Laerm;48586;50.122;18.972;2023-04-24T03:06:03;43.92;36.65;54.65;;
77135;Laerm;48586;50.122;18.972;2023-04-24T03:08:09;43.43;37.00;51.44;;
77135;Laerm;48586;50.122;18.972;2023-04-24T03:10:13;47.39;38.39;58.10;;
77135;Laerm;48586;50.122;18.972;2023-04-24T03:12:17;48.98;37.76;65.80;;
77135;Laerm;48586;50.122;18.972;2023-04-24T03:14:21;51.25;40.19;67.51;;
77135;Laerm;48586;50.122;18.972;2023-04-24T03:16:26;51.03;41.71;66.37;;
77135;Laerm;48586;50.122;18.972;2023-04-24T03:18:30;43.47;38.37;51.20;;
77135;Laerm;48586;50.122;18.972;2023-04-24T03:20:37;47.76;42.61;54.48;;
77135;Laerm;48586;50.122;18.972;2023-04-24T03:22:42;44.01;38.91;50.61;;
77135;Laerm;48586;50.122;18.972;2023-04-24T03:24:47;48.60;39.36;57.28;;
77135;Laerm;48586;50.122;18.972;2023-04-24T03:26:53;48.60;39.44;55.48;;
77135;Laerm;48586;50.122;18.972;2023-04-24T03:29:33;47.71;38.60;56.89;;
77135;Laerm;48586;50.122;18.972;2023-04-24T03:31:39;47.20;40.42;54.54;;
77135;Laerm;48586;50.122;18.972;2023-04-24T03:33:43;45.23;38.77;55.06;;
77135;Laerm;48586;50.122;18.972;2023-04-24T03:35:50;50.19;42.79;56.33;;
77135;Laerm;48586;50.122;18.972;2023-04-24T03:37:55;47.76;40.17;61.26;;
77135;Laerm;48586;50.122;18.972;2023-04-24T03:40:19;48.93;41.04;55.82;;
77135;Laerm;48586;50.122;18.972;2023-04-24T03:42:23;47.38;39.34;55.16;;
77135;Laerm;48586;50.122;18.972;2023-04-24T03:44:31;46.00;39.73;55.01;;
77135;Laerm;48586;50.122;18.972;2023-04-24T03:46:35;45.26;38.37;52.92;;
77135;Laerm;48586;50.122;18.972;2023-04-24T03:48:39;48.92;38.38;72.70;;
77135;Laerm;48586;50.122;18.972;2023-04-24T03:50:45;47.60;37.45;58.86;;
77135;Laerm;48586;50.122;18.972;2023-04-24T03:52:52;41.09;37.95;46.72;;
77135;Laerm;48586;50.122;18.972;2023-04-24T03:55:09;46.08;37.79;55.69;;
77135;Laerm;48586;50.122;18.972;2023-04-24T03:57:20;48.72;40.05;58.97;;
77135;Laerm;48586;50.122;18.972;2023-04-24T03:59:37;44.51;38.76;53.47;;
77135;Laerm;48586;50.122;18.972;2023-04-24T04:01:47;47.88;39.53;57.55;;
77135;Laerm;48586;50.122;18.972;2023-04-24T04:03:53;48.15;39.34;63.19;;
77135;Laerm;48586;50.122;18.972;2023-04-24T04:06:00;47.51;39.09;64.37;;
77135;Laerm;48586;50.122;18.972;2023-04-24T04:08:07;45.67;39.66;53.95;;
77135;Laerm;48586;50.122;18.972;2023-04-24T04:10:12;48.79;41.01;55.60;;
77135;Laerm;48586;50.122;18.972;2023-04-24T04:12:17;49.34;39.58;56.49;;
77135;Laerm;48586;50.122;18.972;2023-04-24T04:14:21;48.27;38.74;56.15;;
77135;Laerm;48586;50.122;18.972;2023-04-24T04:16:26;48.38;40.14;61.72;;
77135;Laerm;48586;50.122;18.972;2023-04-24T04:18:37;46.58;40.58;53.39;;
77135;Laerm;48586;50.122;18.972;2023-04-24T04:20:42;48.54;40.29;57.79;;
77135;Laerm;48586;50.122;18.972;2023-04-24T04:22:49;49.17;42.76;55.49;;
77135;Laerm;48586;50.122;18.972;2023-04-24T04:25:04;45.33;39.07;53.43;;
77135;Laerm;48586;50.122;18.972;2023-04-24T04:27:11;48.33;41.34;61.47;;
77135;Laerm;48586;50.122;18.972;2023-04-24T04:29:24;48.43;38.75;57.70;;
77135;Laerm;48586;50.122;18.972;2023-04-24T04:31:28;47.02;39.95;55.06;;
77135;Laerm;48586;50.122;18.972;2023-04-24T04:33:37;48.76;39.71;56.63;;
77135;Laerm;48586;50.122;18.972;2023-04-24T04:35:43;49.50;40.83;63.88;;
77135;Laerm;48586;50.122;18.972;2023-04-24T04:37:49;48.72;40.43;64.59;;
77135;Laerm;48586;50.122;18.972;2023-04-24T04:40:16;48.91;40.79;68.01;;
77135;Laerm;48586;50.122;18.972;2023-04-24T04:42:27;48.07;39.93;56.86;;
77135;Laerm;48586;50.122;18.972;2023-04-24T04:44:31;50.17;41.87;59.43;;
77135;Laerm;48586;50.122;18.972;2023-04-24T04:46:37;50.08;39.60;61.14;;
77135;Laerm;48586;50.122;18.972;2023-04-24T04:48:52;49.89;42.04;60.82;;
77135;Laerm;48586;50.122;18.972;2023-04-24T04:50:57;47.39;40.86;55.28;;
77135;Laerm;48586;50.122;18.972;2023-04-24T04:53:03;47.97;40.49;58.19;;
77135;Laerm;48586;50.122;18.972;2023-04-24T04:55:16;50.31;42.16;61.66;;
77135;Laerm;48586;50.122;18.972;2023-04-24T04:57:50;50.14;43.11;56.10;;
77135;Laerm;48586;50.122;18.972;2023-04-24T04:59:56;49.32;39.96;58.62;;
77135;Laerm;48586;50.122;18.972;2023-04-24T05:02:16;48.87;40.73;58.20;;
77135;Laerm;48586;50.122;18.972;2023-04-24T05:04:21;47.39;41.61;54.41;;
77135;Laerm;48586;50.122;18.972;2023-04-24T05:06:25;47.58;38.01;57.60;;
77135;Laerm;48586;50.122;18.972;2023-04-24T05:08:31;49.16;39.25;59.21;;
77135;Laerm;48586;50.122;18.972;2023-04-24T05:10:39;49.22;39.49;57.69;;
77135;Laerm;48586;50.122;18.972;2023-04-24T05:12:45;49.37;41.16;66.39;;
77135;Laerm;48586;50.122;18.972;2023-04-24T05:14:52;47.20;39.36;55.19;;
77135;Laerm;48586;50.122;18.972;2023-04-24T05:16:57;48.50;40.08;57.43;;
77135;Laerm;48586;50.122;18.972;2023-04-24T05:19:02;48.38;40.12;56.70;;
77135;Laerm;48586;50.122;18.972;2023-04-24T05:21:14;50.61;43.33;58.55;;
77135;Laerm;48586;50.122;18.972;2023-04-24T05:23:23;51.57;44.97;58.87;;
77135;Laerm;48586;50.122;18.972;2023-04-24T05:25:29;47.36;40.55;55.53;;
77135;Laerm;48586;50.122;18.972;2023-04-24T05:27:45;52.35;44.20;64.01;;
77135;Laerm;48586;50.122;18.972;2023-04-24T05:29:53;54.82;43.64;72.96;;
77135;Laerm;48586;50.122;18.972;2023-04-24T05:31:57;52.29;42.13;62.16;;
77135;Laerm;48586;50.122;18.972;2023-04-24T05:34:06;49.88;40.35;57.21;;
77135;Laerm;48586;50.122;18.972;2023-04-24T05:36:16;49.85;42.11;56.80;;
77135;Laerm;48586;50.122;18.972;2023-04-24T05:38:21;47.36;38.81;56.56;;
77135;Laerm;48586;50.122;18.972;2023-04-24T05:40:26;50.16;40.27;63.14;;
77135;Laerm;48586;50.122;18.972;2023-04-24T05:42:31;49.17;40.54;63.07;;
77135;Laerm;48586;50.122;18.972;2023-04-24T05:44:38;52.89;40.51;69.05;;
77135;Laerm;48586;50.122;18.972;2023-04-24T05:46:45;71.68;44.78;84.59;;
77135;Laerm;48586;50.122;18.972;2023-04-24T05:48:49;65.80;42.46;84.48;;
77135;Laerm;48586;50.122;18.972;2023-04-24T05:50:54;48.77;41.34;58.12;;
77135;Laerm;48586;50.122;18.972;2023-04-24T05:53:01;52.44;42.57;73.67;;
77135;Laerm;48586;50.122;18.972;2023-04-24T05:55:09;49.78;43.22;61.14;;
77135;Laerm;48586;50.122;18.972;2023-04-24T05:57:16;48.07;39.72;54.49;;
77135;Laerm;48586;50.122;18.972;2023-04-24T05:59:29;50.06;42.89;61.20;;
77135;Laerm;48586;50.122;18.972;2023-04-24T06:01:37;49.17;42.04;56.42;;
77135;Laerm;48586;50.122;18.972;2023-04-24T06:03:48;49.02;42.22;58.53;;
77135;Laerm;48586;50.122;18.972;2023-04-24T06:05:55;47.93;40.30;53.57;;
77135;Laerm;48586;50.122;18.972;2023-04-24T06:08:01;49.61;40.64;59.15;;
77135;Laerm;48586;50.122;18.972;2023-04-24T06:10:12;48.53;40.21;54.98;;
77135;Laerm;48586;50.122;18.972;2023-04-24T06:12:20;47.11;38.88;61.61;;
77135;Laerm;48586;50.122;18.972;2023-04-24T06:14:31;49.31;39.97;56.96;;
77135;Laerm;48586;50.122;18.972;2023-04-24T06:16:54;49.38;38.97;55.56;;
77135;Laerm;48586;50.122;18.972;2023-04-24T06:19:09;50.37;40.41;59.83;;
77135;Laerm;48586;50.122;18.972;2023-04-24T06:21:16;49.75;42.18;58.02;;
77135;Laerm;48586;50.122;18.972;2023-04-24T06:23:23;47.22;39.29;59.77;;
77135;Laerm;48586;50.122;18.972;2023-04-24T06:25:29;48.74;38.63;54.67;;
77135;Laerm;48586;50.122;18.972;2023-04-24T06:27:34;48.73;40.09;55.61;;
77135;Laerm;48586;50.122;18.972;2023-04-24T06:29:38;49.95;40.39;66.84;;
77135;Laerm;48586;50.122;18.972;2023-04-24T06:31:44;48.98;39.25;64.64;;
77135;Laerm;48586;50.122;18.972;2023-04-24T06:33:52;51.79;43.56;62.13;;
77135;Laerm;48586;50.122;18.972;2023-04-24T06:35:57;50.24;40.91;56.88;;
77135;Laerm;48586;50.122;18.972;2023-04-24T06:38:04;48.04;41.47;54.61;;
77135;Laerm;48586;50.122;18.972;2023-04-24T06:40:10;48.21;39.93;55.63;;
77135;Laerm;48586;50.122;18.972;2023-04-24T06:42:16;48.30;42.04;53.92;;
77135;Laerm;48586;50.122;18.972;2023-04-24T06:44:25;48.44;39.03;55.50;;
77135;Laerm;48586;50.122;18.972;2023-04-24T06:46:30;49.48;40.30;57.79;;
77135;Laerm;48586;50.122;18.972;2023-04-24T06:48:36;49.57;40.27;59.17;;
77135;Laerm;48586;50.122;18.972;2023-04-24T06:50:45;47.50;39.19;61.39;;
77135;Laerm;48586;50.122;18.972;2023-04-24T06:52:50;48.47;42.17;59.88;;
77135;Laerm;48586;50.122;18.972;2023-04-24T06:55:00;48.23;40.15;54.56;;
77135;Laerm;48586;50.122;18.972;2023-04-24T06:57:06;49.31;42.63;55.33;;
77135;Laerm;48586;50.122;18.972;2023-04-24T06:59:10;49.47;42.70;55.39;;
77135;Laerm;48586;50.122;18.972;2023-04-24T07:01:16;47.89;38.60;54.43;;
77135;Laerm;48586;50.122;18.972;2023-04-24T07:03:21;47.09;37.97;55.77;;
77135;Laerm;48586;50.122;18.972;2023-04-24T07:05:26;50.82;39.75;72.40;;
77135;Laerm;48586;50.122;18.972;2023-04-24T07:07:34;47.25;39.37;63.59;;
77135;Laerm;48586;50.122;18.972;2023-04-24T07:09:40;46.86;37.42;70.56;;
77135;Laerm;48586;50.122;18.972;2023-04-24T07:11:46;46.58;37.95;56.34;;
77135;Laerm;48586;50.122;18.972;2023-04-24T07:13:52;46.21;39.13;61.36;;
77135;Laerm;48586;50.122;18.972;2023-04-24T07:15:57;46.89;38.46;58.00;;
77135;Laerm;48586;50.122;18.972;2023-04-24T07:18:02;48.36;36.86;59.90;;
77135;Laerm;48586;50.122;18.972;2023-04-24T07:20:09;46.21;38.71;57.32;;
77135;Laerm;48586;50.122;18.972;2023-04-24T07:22:17;49.91;39.35;59.62;;
77135;Laerm;48586;50.122;18.972;2023-04-24T07:24:25;47.82;38.84;58.60;;
77135;Laerm;48586;50.122;18.972;2023-04-24T07:26:31;47.84;38.50;57.88;;
77135;Laerm;48586;50.122;18.972;2023-04-24T07:28:36;46.77;37.50;57.90;;
77135;Laerm;48586;50.122;18.972;2023-04-24T07:30:42;47.25;36.82;57.32;;
77135;Laerm;48586;50.122;18.972;2023-04-24T07:32:48;47.07;40.23;56.62;;
77135;Laerm;48586;50.122;18.972;2023-04-24T07:34:53;46.71;38.36;58.97;;
77135;Laerm;48586;50.122;18.972;2023-04-24T07:36:57;47.52;38.66;57.41;;
77135;Laerm;48586;50.122;18.972;2023-04-24T07:39:03;44.81;37.59;56.64;;
77135;Laerm;48586;50.122;18.972;2023-04-24T07:41:11;50.23;38.09;68.03;;
77135;Laerm;48586;50.122;18.972;2023-04-24T07:43:17;45.40;36.49;54.40;;
77135;Laerm;48586;50.122;18.972;2023-04-24T07:45:23;48.40;40.19;56.24;;
77135;Laerm;48586;50.122;18.972;2023-04-24T07:47:31;49.36;38.19;66.32;;
77135;Laerm;48586;50.122;18.972;2023-04-24T07:49:36;49.65;38.00;66.37;;
77135;Laerm;48586;50.122;18.972;2023-04-24T07:51:41;48.92;40.24;56.70;;
77135;Laerm;48586;50.122;18.972;2023-04-24T07:53:46;49.12;41.69;57.40;;
77135;Laerm;48586;50.122;18.972;2023-04-24T07:55:54;47.66;41.17;54.61;;
77135;Laerm;48586;50.122;18.972;2023-04-24T07:58:02;49.21;38.42;55.34;;
77135;Laerm;48586;50.122;18.972;2023-04-24T08:00:09;47.57;41.15;57.27;;
77135;Laerm;48586;50.122;18.972;2023-04-24T08:02:15;48.18;40.85;57.10;;
77135;Laerm;48586;50.122;18.972;2023-04-24T08:04:20;48.38;37.39;61.55;;
77135;Laerm;48586;50.122;18.972;2023-04-24T08:06:27;47.58;37.95;59.16;;
77135;Laerm;48586;50.122;18.972;2023-04-24T08:08:33;47.33;38.29;57.36;;
77135;Laerm;48586;50.122;18.972;2023-04-24T08:10:38;47.38;38.84;58.41;;
77135;Laerm;48586;50.122;18.972;2023-04-24T08:12:44;46.70;39.70;64.75;;
77135;Laerm;48586;50.122;18.972;2023-04-24T08:14:52;50.93;40.11;69.37;;
77135;Laerm;48586;50.122;18.972;2023-04-24T08:16:57;51.29;41.47;59.62;;
77135;Laerm;48586;50.122;18.972;2023-04-24T08:19:03;50.05;41.34;60.89;;
77135;Laerm;48586;50.122;18.972;2023-04-24T08:21:08;47.52;40.38;58.95;;
77135;Laerm;48586;50.122;18.972;2023-04-24T08:23:14;48.62;39.90;58.98;;
77135;Laerm;48586;50.122;18.972;2023-04-24T08:25:20;46.01;38.34;53.21;;
77135;Laerm;48586;50.122;18.972;2023-04-24T08:27:26;46.97;38.33;54.29;;
77135;Laerm;48586;50.122;18.972;2023-04-24T08:29:32;48.58;41.20;54.02;;
77135;Laerm;48586;50.122;18.972;2023-04-24T08:31:40;48.03;38.84;56.22;;
77135;Laerm;48586;50.122;18.972;2023-04-24T08:33:46;47.05;38.04;52.91;;
77135;Laerm;48586;50.122;18.972;2023-04-24T08:35:50;48.33;39.45;57.35;;
77135;Laerm;48586;50.122;18.972;2023-04-24T08:37:57;48.32;37.88;60.89;;
77135;Laerm;48586;50.122;18.972;2023-04-24T08:40:03;46.82;38.97;65.82;;
77135;Laerm;48586;50.122;18.972;2023-04-24T08:42:12;49.81;39.54;59.26;;
77135;Laerm;48586;50.122;18.972;2023-04-24T08:44:20;50.14;39.83;61.30;;
77135;Laerm;48586;50.122;18.972;2023-04-24T08:46:25;50.61;39.14;69.00;;
77135;Laerm;48586;50.122;18.972;2023-04-24T08:48:34;50.38;37.26;67.12;;
77135;Laerm;48586;50.122;18.972;2023-04-24T08:50:42;48.59;37.40;64.17;;
77135;Laerm;48586;50.122;18.972;2023-04-24T08:52:48;49.62;38.34;62.69;;
77135;Laerm;48586;50.122;18.972;2023-04-24T08:54:56;49.30;39.73;59.40;;
77135;Laerm;48586;50.122;18.972;2023-04-24T08:57:03;53.95;36.24;70.25;;
77135;Laerm;48586;50.122;18.972;2023-04-24T08:59:09;49.25;38.03;63.40;;
77135;Laerm;48586;50.122;18.972;2023-04-24T09:01:15;51.35;40.10;65.03;;
77135;Laerm;48586;50.122;18.972;2023-04-24T09:03:21;48.47;36.46;59.91;;
77135;Laerm;48586;50.122;18.972;2023-04-24T09:05:30;50.49;40.60;65.72;;
77135;Laerm;48586;50.122;18.972;2023-04-24T09:07:39;51.53;39.45;66.37;;
77135;Laerm;48586;50.122;18.972;2023-04-24T09:09:44;49.55;38.82;63.25;;
77135;Laerm;48586;50.122;18.972;2023-04-24T09:11:51;49.47;39.48;62.97;;
77135;Laerm;48586;50.122;18.972;2023-04-24T09:13:59;50.24;41.41;62.23;;
77135;Laerm;48586;50.122;18.972;2023-04-24T09:16:06;50.74;41.52;63.08;;
77135;Laerm;48586;50.122;18.972;2023-04-24T09:18:12;50.84;42.60;62.74;;
77135;Laerm;48586;50.122;18.972;2023-04-24T09:20:16;50.77;42.80;61.30;;
77135;Laerm;48586;50.122;18.972;2023-04-24T09:22:29;51.16;42.08;58.87;;
77135;Laerm;48586;50.122;18.972;2023-04-24T09:24:36;51.42;39.65;61.61;;
77135;Laerm;48586;50.122;18.972;2023-04-24T09:26:42;50.83;41.36;62.52;;
77135;Laerm;48586;50.122;18.972;2023-04-24T09:28:47;49.12;39.89;59.70;;
77135;Laerm;48586;50.122;18.972;2023-04-24T09:31:04;50.92;41.43;63.17;;
77135;Laerm;48586;50.122;18.972;2023-04-24T09:33:14;52.20;41.21;70.79;;
77135;Laerm;48586;50.122;18.972;2023-04-24T09:35:20;51.03;43.31;63.05;;
77135;Laerm;48586;50.122;18.972;2023-04-24T09:37:36;52.44;43.33;64.56;;
77135;Laerm;48586;50.122;18.972;2023-04-24T09:39:44;51.58;44.06;62.95;;
77135;Laerm;48586;50.122;18.972;2023-04-24T09:41:51;53.52;44.02;70.69;;
77135;Laerm;48586;50.122;18.972;2023-04-24T09:44:12;48.75;38.61;61.03;;
77135;Laerm;48586;50.122;18.972;2023-04-24T09:46:18;48.42;40.02;59.91;;
77135;Laerm;48586;50.122;18.972;2023-04-24T09:48:32;49.23;39.00;60.59;;
77135;Laerm;48586;50.122;18.972;2023-04-24T09:50:37;49.69;40.53;66.30;;
77135;Laerm;48586;50.122;18.972;2023-04-24T09:52:47;74.25;38.51;83.57;;
77135;Laerm;48586;50.122;18.972;2023-04-24T09:55:01;49.83;39.31;59.24;;
77135;Laerm;48586;50.122;18.972;2023-04-24T09:57:08;47.90;38.84;58.81;;
77135;Laerm;48586;50.122;18.972;2023-04-24T09:59:15;48.08;38.33;57.32;;
77135;Laerm;48586;50.122;18.972;2023-04-24T10:01:31;48.26;38.96;59.06;;
77135;Laerm;48586;50.122;18.972;2023-04-24T10:03:35;48.87;38.06;57.84;;
77135;Laerm;48586;50.122;18.972;2023-04-24T10:05:40;47.23;38.61;56.09;;
77135;Laerm;48586;50.122;18.972;2023-04-24T10:07:48;46.89;38.27;55.55;;
77135;Laerm;48586;50.122;18.972;2023-04-24T10:09:55;51.00;42.99;59.54;;
77135;Laerm;48586;50.122;18.972;2023-04-24T10:12:00;50.10;40.89;66.31;;
77135;Laerm;48586;50.122;18.972;2023-04-24T10:14:06;48.28;39.30;59.72;;
77135;Laerm;48586;50.122;18.972;2023-04-24T10:16:15;49.81;38.32;63.42;;
77135;Laerm;48586;50.122;18.972;2023-04-24T10:18:21;48.92;39.70;66.82;;
77135;Laerm;48586;50.122;18.972;2023-04-24T10:20:29;52.51;39.62;70.30;;
77135;Laerm;48586;50.122;18.972;2023-04-24T10:22:36;50.13;40.50;65.17;;
77135;Laerm;48586;50.122;18.972;2023-04-24T10:24:47;61.23;42.87;90.33;;
77135;Laerm;48586;50.122;18.972;2023-04-24T10:26:55;50.73;39.42;61.63;;
77135;Laerm;48586;50.122;18.972;2023-04-24T10:29:01;51.31;42.75;66.08;;
77135;Laerm;48586;50.122;18.972;2023-04-24T10:31:09;50.96;40.98;67.88;;
77135;Laerm;48586;50.122;18.972;2023-04-24T10:33:16;48.32;40.17;62.15;;
77135;Laerm;48586;50.122;18.972;2023-04-24T10:35:23;55.15;42.80;77.74;;
77135;Laerm;48586;50.122;18.972;2023-04-24T10:37:35;73.32;46.34;85.86;;
77135;Laerm;48586;50.122;18.972;2023-04-24T10:39:48;66.09;45.04;82.58;;
77135;Laerm;48586;50.122;18.972;2023-04-24T10:41:55;53.67;44.42;66.23;;
77135;Laerm;48586;50.122;18.972;2023-04-24T10:44:09;50.66;43.87;59.36;;
77135;Laerm;48586;50.122;18.972;2023-04-24T10:46:20;49.43;41.31;62.55;;
77135;Laerm;48586;50.122;18.972;2023-04-24T10:48:27;51.58;43.37;60.36;;
77135;Laerm;48586;50.122;18.972;2023-04-24T10:50:44;50.02;43.37;57.00;;
77135;Laerm;48586;50.122;18.972;2023-04-24T10:52:51;51.07;42.73;67.76;;
77135;Laerm;48586;50.122;18.972;2023-04-24T10:55:04;50.90;42.71;65.44;;
77135;Laerm;48586;50.122;18.972;2023-04-24T10:57:28;49.90;43.51;68.03;;
77135;Laerm;48586;50.122;18.972;2023-04-24T10:59:36;52.59;46.10;60.71;;
77135;Laerm;48586;50.122;18.972;2023-04-24T11:01:53;55.95;47.37;63.35;;
77135;Laerm;48586;50.122;18.972;2023-04-24T11:04:07;54.21;46.53;62.83;;
77135;Laerm;48586;50.122;18.972;2023-04-24T11:06:13;54.39;47.29;62.26;;
77135;Laerm;48586;50.122;18.972;2023-04-24T11:08:25;54.22;46.25;63.14;;
77135;Laerm;48586;50.122;18.972;2023-04-24T11:10:33;52.23;45.08;58.50;;
77135;Laerm;48586;50.122;18.972;2023-04-24T11:12:39;54.80;47.35;62.91;;
77135;Laerm;48586;50.122;18.972;2023-04-24T11:15:01;55.98;46.22;70.92;;
77135;Laerm;48586;50.122;18.972;2023-04-24T11:17:06;53.97;47.21;60.13;;
77135;Laerm;48586;50.122;18.972;2023-04-24T11:19:22;53.19;46.15;59.50;;
77135;Laerm;48586;50.122;18.972;2023-04-24T11:21:42;55.11;46.15;68.24;;
77135;Laerm;48586;50.122;18.972;2023-04-24T11:23:47;53.84;47.73;59.63;;
77135;Laerm;48586;50.122;18.972;2023-04-24T11:26:18;51.38;42.21;57.74;;
77135;Laerm;48586;50.122;18.972;2023-04-24T11:28:28;52.48;42.60;63.20;;
77135;Laerm;48586;50.122;18.972;2023-04-24T11:30:33;54.31;43.05;70.79;;
77135;Laerm;48586;50.122;18.972;2023-04-24T11:32:42;50.61;42.41;64.65;;
77135;Laerm;48586;50.122;18.972;2023-04-24T11:34:49;51.11;43.05;57.38;;
77135;Laerm;48586;50.122;18.972;2023-04-24T11:36:56;55.15;45.25;68.31;;
77135;Laerm;48586;50.122;18.972;2023-04-24T11:39:02;52.86;41.18;65.29;;
77135;Laerm;48586;50.122;18.972;2023-04-24T11:41:08;50.26;41.76;63.63;;
77135;Laerm;48586;50.122;18.972;2023-04-24T11:43:18;52.84;43.31;69.66;;